Time;durP1;ratioP1;P1;durP2;ratioP2;P2;SDS_P1;SDS_P2;PMS_P1;PMS_P2;Temp;Humidity;BMP_temperature;BMP_pressure;BME280_temperature;BME280_humidity;BME280_pressure;Samples;Min_cycle;Max_cycle;Signal;HPM_P1;HPM_P2
2023/01/13 00:02:00;;;;;;;0.50;0.50;;;;;;;3.81;99.49;98345.59;5024518;28;20109;-74
2023/01/13 00:04:25;;;;;;;0.50;0.50;;;;;;;4.00;97.76;98317.09;5024724;28;20458;-73
2023/01/13 00:06:50;;;;;;;0.50;0.50;;;;;;;3.95;97.83;98314.59;5024512;28;20022;-74
2023/01/13 00:09:16;;;;;;;0.50;0.50;;;;;;;4.02;97.80;98308.50;5026543;28;20037;-75
2023/01/13 00:11:41;;;;;;;0.50;0.50;;;;;;;3.65;99.02;98279.09;5028095;28;20022;-76
2023/01/13 00:14:07;;;;;;;0.50;0.50;;;;;;;3.79;99.55;98278.91;5043453;28;20028;-74
2023/01/13 00:16:32;;;;;;;0.80;0.80;;;;;;;3.86;98.64;98297.63;5028155;28;20026;-77
2023/01/13 00:18:57;;;;;;;0.93;0.93;;;;;;;3.70;99.26;98291.88;5028294;28;20037;-78
2023/01/13 00:21:23;;;;;;;0.50;0.50;;;;;;;3.75;99.54;98295.22;5028211;28;20101;-77
2023/01/13 00:23:51;;;;;;;0.50;0.50;;;;;;;3.83;99.88;98289.97;5028218;28;20025;-76
2023/01/13 00:26:25;;;;;;;0.50;0.50;;;;;;;3.97;98.68;98280.34;5027972;28;20080;-74
2023/01/13 00:28:56;;;;;;;2.15;1.35;;;;;;;3.99;98.41;98267.47;5028414;28;20018;-75
2023/01/13 00:31:22;;;;;;;0.47;0.47;;;;;;;3.93;98.44;98277.84;5028210;28;20109;-75
2023/01/13 00:33:49;;;;;;;0.70;0.70;;;;;;;3.76;99.86;98265.25;5028155;28;20033;-76
2023/01/13 00:36:17;;;;;;;0.50;0.50;;;;;;;3.96;98.70;98247.81;5043746;28;20394;-73
2023/01/13 00:38:43;;;;;;;0.50;0.50;;;;;;;3.78;99.44;98246.41;5028163;28;20030;-73
2023/01/13 00:41:13;;;;;;;0.50;0.50;;;;;;;3.96;98.11;98237.53;5027422;28;20037;-74
2023/01/13 00:43:39;;;;;;;0.50;0.50;;;;;;;4.05;98.22;98257.09;5027741;28;20117;-75
2023/01/13 00:46:07;;;;;;;0.70;0.70;;;;;;;3.87;99.38;98235.13;5027713;28;20268;-74
2023/01/13 00:48:33;;;;;;;0.50;0.50;;;;;;;4.01;98.43;98221.22;5027395;28;20021;-72
2023/01/13 00:51:19;;;;;;;0.50;0.50;;;;;;;4.01;98.95;98210.97;5027579;28;20084;-72
2023/01/13 00:53:47;;;;;;;0.50;0.50;;;;;;;4.00;97.94;98209.25;5042578;28;20094;-73
2023/01/13 00:56:16;;;;;;;0.57;0.57;;;;;;;3.91;98.49;98177.75;5027319;28;20034;-72
2023/01/13 00:58:44;;;;;;;0.50;0.50;;;;;;;3.77;99.25;98174.56;5027386;28;20561;-77
2023/01/13 01:01:13;;;;;;;0.50;0.50;;;;;;;3.72;100.00;98166.94;5042318;28;20026;-77
2023/01/13 01:03:39;;;;;;;0.50;0.50;;;;;;;3.75;100.00;98153.19;5026226;28;20104;-78
2023/01/13 01:06:08;;;;;;;0.50;0.50;;;;;;;3.60;100.00;98167.97;5026149;28;20034;-74
2023/01/13 01:08:34;;;;;;;0.50;0.50;;;;;;;3.76;100.00;98183.97;5026106;28;20029;-74
2023/01/13 01:11:02;;;;;;;0.50;0.50;;;;;;;3.91;100.00;98184.59;5027199;28;20030;-72
2023/01/13 01:13:28;;;;;;;0.50;0.50;;;;;;;4.06;99.39;98183.47;5027047;28;20018;-72
2023/01/13 01:15:53;;;;;;;0.50;0.50;;;;;;;3.89;99.72;98165.78;5025797;28;20026;-71
2023/01/13 01:18:18;;;;;;;0.50;0.50;;;;;;;4.02;99.21;98166.44;5027128;28;20139;-74
2023/01/13 01:20:44;;;;;;;0.50;0.50;;;;;;;3.93;99.54;98158.00;5026418;28;20036;-74
2023/01/13 01:23:09;;;;;;;0.50;0.50;;;;;;;3.86;99.52;98153.00;5026993;28;20058;-73
2023/01/13 01:25:34;;;;;;;0.50;0.50;;;;;;;3.77;100.00;98161.72;5026590;28;20022;-71
2023/01/13 01:28:00;;;;;;;0.50;0.50;;;;;;;3.82;100.00;98160.75;5026780;28;20034;-74
2023/01/13 01:30:25;;;;;;;0.50;0.50;;;;;;;3.78;100.00;98164.28;5026877;28;20057;-74
2023/01/13 01:32:51;;;;;;;0.50;0.50;;;;;;;3.93;100.00;98155.44;5042015;28;20026;-73
2023/01/13 01:35:16;;;;;;;0.57;0.57;;;;;;;3.72;100.00;98152.38;5026774;28;20458;-72
2023/01/13 01:37:41;;;;;;;0.50;0.50;;;;;;;3.58;100.00;98144.91;5026013;28;20021;-74
2023/01/13 01:40:08;;;;;;;0.50;0.50;;;;;;;3.56;100.00;98130.44;5025310;28;20034;-75
2023/01/13 01:45:20;;;;;;;0.50;0.50;;;;;;;4.06;100.00;98126.97;5026484;28;20025;-73
2023/01/13 01:47:55;;;;;;;0.50;0.50;;;;;;;4.19;100.00;98122.44;5026483;28;20018;-73
2023/01/13 01:50:22;;;;;;;0.50;0.50;;;;;;;4.07;100.00;98118.41;5026497;28;20038;-74
2023/01/13 01:52:55;;;;;;;0.57;0.57;;;;;;;3.96;100.00;98124.56;5026446;28;20076;-72
2023/01/13 01:55:26;;;;;;;0.50;0.50;;;;;;;3.85;100.00;98123.91;5024990;28;20022;-74
2023/01/13 01:57:57;;;;;;;0.50;0.50;;;;;;;3.97;100.00;98113.44;5026291;28;20022;-74
2023/01/13 02:00:24;;;;;;;0.50;0.50;;;;;;;3.90;100.00;98111.84;5026256;28;20109;-74
2023/01/13 02:02:51;;;;;;;0.50;0.50;;;;;;;4.09;100.00;98104.66;5026144;28;20335;-72
2023/01/13 02:05:17;;;;;;;0.57;0.57;;;;;;;4.23;100.00;98108.69;5026317;28;20100;-72
2023/01/13 02:07:45;;;;;;;0.55;0.55;;;;;;;4.12;100.00;98118.31;5026281;28;20400;-71
2023/01/13 02:10:14;;;;;;;0.50;0.50;;;;;;;4.05;100.00;98112.44;5024764;28;20535;-71
2023/01/13 02:12:42;;;;;;;0.50;0.50;;;;;;;4.01;100.00;98096.25;5025927;28;20041;-71
2023/01/13 02:15:09;;;;;;;0.55;0.55;;;;;;;4.07;100.00;98116.66;5026089;28;20026;-73
2023/01/13 02:17:47;;;;;;;0.50;0.50;;;;;;;4.10;100.00;98113.22;5026013;28;20028;-73
2023/01/13 02:20:31;;;;;;;0.50;0.50;;;;;;;4.09;100.00;98106.38;5026235;28;20026;-72
2023/01/13 02:26:20;;;;;;;0.50;0.50;;;;;;;4.19;100.00;98100.19;5023646;28;20064;-73
2023/01/13 02:32:22;;;;;;;0.47;0.47;;;;;;;4.21;100.00;98095.03;5014514;28;20257;-73
2023/01/13 02:34:57;;;;;;;0.50;0.50;;;;;;;4.20;100.00;98096.75;5025933;28;20022;-74
2023/01/13 02:37:28;;;;;;;0.50;0.50;;;;;;;4.33;100.00;98099.06;5025873;28;20014;-74
2023/01/13 02:39:56;;;;;;;0.60;0.60;;;;;;;4.26;100.00;98094.94;5025604;28;20105;-74
2023/01/13 02:45:22;;;;;;;0.50;0.50;;;;;;;4.43;100.00;98092.00;5025795;28;20029;-73
2023/01/13 02:47:54;;;;;;;0.50;0.50;;;;;;;4.53;100.00;98095.25;5024350;28;20026;-72
2023/01/13 02:50:25;;;;;;;0.60;0.60;;;;;;;4.59;100.00;98088.25;5040952;28;20022;-73
2023/01/13 02:52:55;;;;;;;0.50;0.50;;;;;;;4.75;100.00;98090.47;5040723;28;20041;-73
2023/01/13 02:55:34;;;;;;;0.50;0.50;;;;;;;4.76;100.00;98083.63;5025527;28;20029;-73
2023/01/13 02:58:03;;;;;;;0.50;0.50;;;;;;;4.84;100.00;98079.13;5040597;28;20030;-74
2023/01/13 03:00:32;;;;;;;0.50;0.50;;;;;;;4.88;100.00;98064.50;5025326;28;20432;-72
2023/01/13 03:02:57;;;;;;;0.50;0.50;;;;;;;5.06;100.00;98076.09;5025372;28;20036;-71
2023/01/13 03:05:24;;;;;;;0.50;0.50;;;;;;;5.01;100.00;98073.63;5025251;28;20030;-73
2023/01/13 03:08:14;;;;;;;0.50;0.50;;;;;;;5.06;100.00;98066.63;5025272;28;20030;-72
2023/01/13 03:11:06;;;;;;;0.50;0.50;;;;;;;5.13;100.00;98067.34;5025334;28;20029;-71
2023/01/13 03:14:00;;;;;;;0.65;0.65;;;;;;;5.16;100.00;98063.88;5025025;28;20401;-71
2023/01/13 03:16:49;;;;;;;0.50;0.50;;;;;;;5.20;100.00;98065.47;5025249;28;20034;-72
2023/01/13 03:19:23;;;;;;;0.50;0.50;;;;;;;5.23;100.00;98054.25;5040347;28;20026;-73
2023/01/13 03:22:08;;;;;;;0.50;0.50;;;;;;;5.28;100.00;98049.84;5025259;28;20036;-71
2023/01/13 03:24:46;;;;;;;0.50;0.50;;;;;;;5.32;100.00;98056.59;5025126;28;20053;-71
2023/01/13 03:27:24;;;;;;;0.50;0.50;;;;;;;5.39;100.00;98057.28;5024921;28;20080;-72
2023/01/13 03:30:00;;;;;;;0.50;0.50;;;;;;;5.47;100.00;98063.09;5025400;28;20070;-72
2023/01/13 03:32:36;;;;;;;0.50;0.50;;;;;;;5.52;100.00;98058.69;5025033;28;20061;-73
2023/01/13 03:35:12;;;;;;;0.50;0.50;;;;;;;5.58;100.00;98057.66;5025219;28;20034;-73
2023/01/13 03:37:42;;;;;;;0.50;0.50;;;;;;;5.61;100.00;98047.28;5040330;28;20034;-72
2023/01/13 03:40:15;;;;;;;0.50;0.50;;;;;;;5.71;100.00;98047.88;5024808;28;20044;-73
2023/01/13 03:44:20;;;;;;;0.40;0.40;;;;;;;5.79;100.00;98056.25;5023575;28;20102;-73
2023/01/13 03:45:34;;;;;;;0.50;0.50;;;;;;;5.87;100.00;98042.31;5028710;28;20111;-71
2023/01/13 03:48:05;;;;;;;0.50;0.50;;;;;;;5.92;100.00;98048.19;5028979;28;20077;-73
2023/01/13 03:50:39;;;;;;;0.60;0.60;;;;;;;5.97;100.00;98046.34;5028788;28;20045;-72
2023/01/13 03:53:11;;;;;;;0.50;0.50;;;;;;;6.00;100.00;98050.56;5043954;28;20033;-72
2023/01/13 03:55:41;;;;;;;0.50;0.50;;;;;;;6.03;100.00;98035.00;5044058;28;20026;-72
2023/01/13 03:58:27;;;;;;;0.50;0.50;;;;;;;6.02;100.00;98033.34;5028647;28;20013;-72
2023/01/13 04:01:17;;;;;;;0.40;0.40;;;;;;;6.06;100.00;98037.53;5028572;28;20021;-73
2023/01/13 04:04:10;;;;;;;0.90;0.90;;;;;;;6.06;100.00;98050.41;5028353;28;20057;-71
2023/01/13 04:06:36;;;;;;;0.50;0.50;;;;;;;6.06;100.00;98045.25;5020379;28;20101;-72
2023/01/13 04:09:13;;;;;;;0.50;0.50;;;;;;;6.01;100.00;98060.81;5028765;28;20036;-72
2023/01/13 04:11:44;;;;;;;0.50;0.50;;;;;;;5.98;100.00;98049.75;5028349;28;20074;-71
2023/01/13 04:14:11;;;;;;;0.50;0.50;;;;;;;5.94;100.00;98049.00;5028496;28;20082;-71
2023/01/13 04:16:37;;;;;;;0.50;0.50;;;;;;;5.89;100.00;98059.44;5028564;28;20022;-72
2023/01/13 04:19:03;;;;;;;0.50;0.50;;;;;;;5.88;100.00;98062.06;5027154;28;20117;-72
2023/01/13 04:21:29;;;;;;;0.50;0.50;;;;;;;5.80;100.00;98047.63;5028473;28;20087;-72
2023/01/13 04:23:55;;;;;;;0.50;0.50;;;;;;;5.81;100.00;98054.47;5028152;28;20029;-71
2023/01/13 04:26:23;;;;;;;0.50;0.50;;;;;;;5.78;100.00;98061.44;5043481;28;20026;-71
2023/01/13 04:28:48;;;;;;;0.50;0.50;;;;;;;5.73;100.00;98064.16;5028191;28;20018;-70
2023/01/13 04:31:14;;;;;;;0.50;0.50;;;;;;;5.66;100.00;98063.47;5043224;28;20087;-70
2023/01/13 04:33:40;;;;;;;0.50;0.50;;;;;;;5.58;100.00;98066.25;5027898;28;20022;-70
2023/01/13 04:36:06;;;;;;;0.50;0.50;;;;;;;5.60;100.00;98071.34;5027893;28;20046;-70
2023/01/13 04:38:31;;;;;;;0.50;0.50;;;;;;;5.57;100.00;98077.41;5028011;28;20068;-69
2023/01/13 04:40:57;;;;;;;0.40;0.40;;;;;;;5.52;100.00;98079.28;5027433;28;20038;-70
2023/01/13 04:43:22;;;;;;;0.50;0.50;;;;;;;5.50;100.00;98083.59;5027800;28;20038;-70
2023/01/13 04:45:47;;;;;;;0.50;0.50;;;;;;;5.48;100.00;98081.97;5027901;28;20030;-69
2023/01/13 04:48:13;;;;;;;0.50;0.50;;;;;;;5.46;100.00;98092.28;5026336;28;20156;-69
2023/01/13 04:50:39;;;;;;;0.50;0.50;;;;;;;5.42;100.00;98073.50;5027594;28;20029;-69
2023/01/13 04:53:04;;;;;;;0.50;0.50;;;;;;;5.40;100.00;98089.88;5027463;28;20049;-70
2023/01/13 04:55:30;;;;;;;0.50;0.50;;;;;;;5.34;100.00;98093.41;5026528;28;20045;-70
2023/01/13 04:58:01;;;;;;;0.50;0.50;;;;;;;5.26;100.00;98092.75;5027311;28;20022;-70
2023/01/13 05:00:27;;;;;;;0.50;0.50;;;;;;;5.23;100.00;98082.53;5042602;28;20284;-70
2023/01/13 05:02:52;;;;;;;0.50;0.50;;;;;;;5.21;100.00;98088.59;5026048;28;20386;-70
2023/01/13 05:05:18;;;;;;;0.50;0.50;;;;;;;5.19;100.00;98104.94;5027226;28;20025;-69
2023/01/13 05:07:44;;;;;;;0.50;0.50;;;;;;;5.14;100.00;98099.06;5027324;28;20021;-69
2023/01/13 05:10:10;;;;;;;0.50;0.50;;;;;;;5.15;100.00;98099.03;5027400;28;20038;-69
2023/01/13 05:18:09;;;;;;;0.50;0.50;;;;;;;5.00;100.00;98095.06;5005009;28;20433;-69
2023/01/13 05:20:35;;;;;;;0.50;0.50;;;;;;;4.99;100.00;98110.53;5008041;28;20033;-69
2023/01/13 05:25:47;;;;;;;0.50;0.50;;;;;;;4.87;100.00;98102.25;5024669;28;20057;-68
2023/01/13 05:28:12;;;;;;;0.50;0.50;;;;;;;4.84;100.00;98102.28;5008181;28;20037;-68
2023/01/13 05:30:44;;;;;;;0.50;0.50;;;;;;;4.83;100.00;98109.16;5024844;28;20038;-69
2023/01/13 05:33:11;;;;;;;;;;;;;;;4.86;100.00;98113.38;5008217;28;20108;-68
2023/01/13 05:35:38;;;;;;;0.50;0.50;;;;;;;4.81;100.00;98107.47;5024519;28;19976;-69
2023/01/13 05:38:03;;;;;;;0.50;0.50;;;;;;;4.76;100.00;98099.88;5024453;28;20061;-68
2023/01/13 05:43:18;;;;;;;0.50;0.50;;;;;;;4.74;100.00;98100.81;5024280;28;20080;-68
2023/01/13 05:45:52;;;;;;;0.70;0.70;;;;;;;4.73;100.00;98107.66;5024502;28;20045;-68
2023/01/13 05:48:19;;;;;;;0.50;0.50;;;;;;;4.70;100.00;98116.28;5024312;28;20460;-69
2023/01/13 05:50:46;;;;;;;0.50;0.50;;;;;;;4.68;100.00;98115.47;5024507;28;20108;-68
2023/01/13 05:53:12;;;;;;;0.50;0.50;;;;;;;4.69;100.00;98118.91;5025985;28;20044;-69
2023/01/13 05:55:39;;;;;;;0.50;0.50;;;;;;;4.65;100.00;98118.09;5026519;28;20022;-69
2023/01/13 05:58:05;;;;;;;0.50;0.50;;;;;;;4.68;100.00;98122.34;5041420;28;20021;-68
2023/01/13 06:00:30;;;;;;;0.50;0.50;;;;;;;4.64;100.00;98115.56;5026177;28;20034;-68
2023/01/13 06:02:56;;;;;;;0.50;0.50;;;;;;;4.68;100.00;98118.03;5026312;28;20052;-68
2023/01/13 06:05:21;;;;;;;0.50;0.50;;;;;;;4.69;100.00;98119.75;5026177;28;20025;-69
2023/01/13 06:07:47;;;;;;;0.50;0.50;;;;;;;4.68;100.00;98118.03;5024547;28;20045;-69
2023/01/13 06:10:12;;;;;;;0.50;0.50;;;;;;;4.69;100.00;98122.31;5026134;28;20033;-69
2023/01/13 06:12:37;;;;;;;0.50;0.50;;;;;;;4.71;100.00;98122.28;5025708;28;20033;-69
2023/01/13 06:15:03;;;;;;;0.50;0.50;;;;;;;4.76;100.00;98129.91;5025012;28;20029;-69
2023/01/13 06:17:29;;;;;;;0.50;0.50;;;;;;;4.80;100.00;98116.09;5026113;28;20018;-69
2023/01/13 06:19:54;;;;;;;0.50;0.50;;;;;;;4.86;100.00;98118.53;5026145;28;20022;-72
2023/01/13 06:22:27;;;;;;;0.50;0.50;;;;;;;4.89;100.00;98120.19;5025992;28;20057;-70
2023/01/13 06:24:53;;;;;;;0.50;0.50;;;;;;;4.90;100.00;98122.75;5025789;28;20021;-69
2023/01/13 06:27:20;;;;;;;0.50;0.50;;;;;;;4.96;100.00;98130.31;5025117;28;20164;-70
2023/01/13 06:29:46;;;;;;;0.50;0.50;;;;;;;5.00;100.00;98127.66;5024618;28;20489;-70
2023/01/13 06:32:23;;;;;;;0.50;0.50;;;;;;;5.00;100.00;98130.25;5025975;28;20056;-70
2023/01/13 06:34:56;;;;;;;0.50;0.50;;;;;;;5.02;100.00;98126.75;5025862;28;20017;-72
2023/01/13 06:37:24;;;;;;;0.50;0.50;;;;;;;4.99;100.00;98119.09;5025802;28;20024;-73
2023/01/13 06:39:52;;;;;;;0.50;0.50;;;;;;;5.00;100.00;98125.91;5025637;28;20109;-74
2023/01/13 06:45:02;;;;;;;0.50;0.50;;;;;;;5.01;100.00;98142.22;5025774;28;20036;-72
2023/01/13 06:47:28;;;;;;;0.50;0.50;;;;;;;5.02;100.00;98137.03;5025671;28;20457;-69
2023/01/13 06:49:53;;;;;;;0.50;0.50;;;;;;;4.99;100.00;98136.25;5040675;28;20026;-70
2023/01/13 06:52:18;;;;;;;0.50;0.50;;;;;;;5.02;100.00;98143.88;5025542;28;20273;-67
2023/01/13 06:54:44;;;;;;;0.50;0.50;;;;;;;5.03;100.00;98143.03;5024854;28;20032;-68
2023/01/13 06:57:09;;;;;;;0.50;0.50;;;;;;;5.05;100.00;98144.69;5024621;28;20053;-69
2023/01/13 06:59:35;;;;;;;0.50;0.50;;;;;;;5.03;100.00;98138.72;5025478;28;20044;-68
2023/01/13 07:02:00;;;;;;;0.50;0.50;;;;;;;5.05;100.00;98147.25;5040620;28;20037;-69
2023/01/13 07:04:26;;;;;;;0.50;0.50;;;;;;;5.04;100.00;98144.72;5025337;28;20036;-69
2023/01/13 07:06:51;;;;;;;0.50;0.50;;;;;;;5.03;100.00;98130.16;5025159;28;20028;-69
2023/01/13 07:09:17;;;;;;;0.50;0.50;;;;;;;5.05;100.00;98129.25;5040740;28;20080;-68
2023/01/13 07:11:42;;;;;;;0.50;0.50;;;;;;;5.09;100.00;98137.75;5025322;28;20033;-67
2023/01/13 07:16:52;;;;;;;0.40;0.40;;;;;;;5.08;100.00;98130.88;5025564;28;20067;-67
2023/01/13 07:19:22;;;;;;;0.50;0.50;;;;;;;5.11;100.00;98124.84;5029253;28;20018;-66
2023/01/13 07:21:49;;;;;;;0.50;0.50;;;;;;;5.12;100.00;98132.53;5030787;28;20033;-66
2023/01/13 07:24:14;;;;;;;0.45;0.45;;;;;;;5.09;100.00;98135.19;5031652;28;20053;-67
2023/01/13 07:26:39;;;;;;;0.50;0.50;;;;;;;5.16;100.00;98129.00;5031627;28;20029;-67
2023/01/13 07:29:05;;;;;;;0.50;0.50;;;;;;;5.17;100.00;98135.84;5031835;28;20045;-66
2023/01/13 07:31:30;;;;;;;0.50;0.50;;;;;;;5.20;100.00;98135.78;5031638;28;20084;-66
2023/01/13 07:33:56;;;;;;;0.50;0.50;;;;;;;5.19;100.00;98133.25;5031790;28;20033;-66
2023/01/13 07:36:21;;;;;;;0.50;0.50;;;;;;;5.22;100.00;98128.03;5030409;28;20017;-67
2023/01/13 07:38:47;;;;;;;0.50;0.50;;;;;;;5.25;100.00;98134.81;5031538;28;20028;-66
2023/01/13 07:43:59;;;;;;;0.50;0.50;;;;;;;5.26;100.00;98133.91;5031190;28;20041;-67
2023/01/13 07:46:24;;;;;;;0.50;0.50;;;;;;;5.25;100.00;98142.53;5031670;28;20359;-67
2023/01/13 07:48:50;;;;;;;0.50;0.50;;;;;;;5.22;100.00;98138.31;5031461;28;20022;-67
2023/01/13 07:51:15;;;;;;;0.50;0.50;;;;;;;5.19;100.00;98139.22;5046740;28;20034;-66
2023/01/13 07:53:41;;;;;;;0.50;0.50;;;;;;;5.17;100.00;98137.56;5031654;28;20037;-67
2023/01/13 07:56:07;;;;;;;0.50;0.50;;;;;;;5.18;100.00;98137.53;5031486;28;20036;-69
2023/01/13 07:58:34;;;;;;;0.50;0.50;;;;;;;5.15;100.00;98137.59;5031566;28;20018;-67
2023/01/13 08:01:06;;;;;;;0.50;0.50;;;;;;;5.14;100.00;98145.34;5030043;28;20308;-68
2023/01/13 08:03:31;;;;;;;0.65;0.65;;;;;;;5.11;100.00;98145.44;5030080;28;20033;-67
2023/01/13 08:05:59;;;;;;;0.50;0.50;;;;;;;5.06;100.00;98140.38;5031637;28;20030;-68
2023/01/13 08:08:25;;;;;;;0.50;0.50;;;;;;;5.08;100.00;98138.59;5031381;28;20018;-68
2023/01/13 08:10:50;;;;;;;0.50;0.50;;;;;;;5.07;100.00;98137.78;5031416;28;20049;-68
2023/01/13 08:13:20;;;;;;;0.50;0.50;;;;;;;5.03;100.00;98131.00;5031269;28;20042;-70
2023/01/13 08:15:48;;;;;;;0.50;0.50;;;;;;;5.01;100.00;98131.91;5031436;28;20030;-69
2023/01/13 08:18:14;;;;;;;0.50;0.50;;;;;;;5.06;100.00;98132.66;5031438;28;20030;-69
2023/01/13 08:20:40;;;;;;;0.50;0.50;;;;;;;5.06;100.00;98128.34;5030942;28;20029;-69
2023/01/13 08:23:05;;;;;;;0.50;0.50;;;;;;;5.07;100.00;98124.91;5029713;28;20037;-69
2023/01/13 08:25:31;;;;;;;0.50;0.50;;;;;;;5.07;100.00;98127.50;5031220;28;20378;-70
2023/01/13 08:27:59;;;;;;;0.50;0.50;;;;;;;5.07;100.00;98119.78;5030988;28;20064;-69
2023/01/13 08:30:25;;;;;;;0.50;0.50;;;;;;;5.10;100.00;98115.44;5029657;28;20026;-67
2023/01/13 08:32:50;;;;;;;0.70;0.70;;;;;;;5.11;100.00;98120.56;5028092;28;20470;-70
2023/01/13 08:35:17;;;;;;;0.50;0.50;;;;;;;5.14;100.00;98117.91;5028064;28;20022;-70
2023/01/13 08:37:43;;;;;;;0.50;0.50;;;;;;;5.18;100.00;98127.25;5028157;28;20384;-69
2023/01/13 08:40:10;;;;;;;0.50;0.50;;;;;;;5.23;100.00;98126.28;5027928;28;20072;-69
2023/01/13 08:42:35;;;;;;;0.50;0.50;;;;;;;5.24;100.00;98131.38;5027722;28;20025;-68
2023/01/13 08:45:01;;;;;;;0.50;0.50;;;;;;;5.24;100.00;98126.25;5027869;28;20056;-71
2023/01/13 08:47:27;;;;;;;0.50;0.50;;;;;;;5.31;100.00;98127.81;5027829;28;20048;-70
2023/01/13 08:49:53;;;;;;;0.50;0.50;;;;;;;5.32;100.00;98116.63;5027948;28;20029;-70
2023/01/13 08:52:19;;;;;;;0.50;0.50;;;;;;;5.40;100.00;98118.19;5043140;28;20028;-70
2023/01/13 08:54:45;;;;;;;0.50;0.50;;;;;;;5.41;100.00;98114.72;5026622;28;20018;-70
2023/01/13 08:57:10;;;;;;;0.50;0.50;;;;;;;5.40;100.00;98111.28;5027336;28;20018;-70
2023/01/13 08:59:36;;;;;;;0.50;0.50;;;;;;;5.42;100.00;98121.53;5027606;28;20240;-70
2023/01/13 09:02:02;;;;;;;0.50;0.50;;;;;;;5.46;100.00;98131.72;5027591;28;20479;-71
2023/01/13 09:04:29;;;;;;;0.50;0.50;;;;;;;5.44;100.00;98112.91;5027380;28;20474;-69
2023/01/13 09:06:54;;;;;;;0.40;0.40;;;;;;;5.49;100.00;98123.09;5042571;28;20105;-69
2023/01/13 09:09:21;;;;;;;1.35;1.27;;;;;;;5.50;100.00;98122.19;5027377;28;20455;-68
2023/01/13 09:14:35;;;;;;;0.50;0.50;;;;;;;5.41;100.00;98119.84;5027397;28;20079;-70
2023/01/13 09:17:01;;;;;;;2.20;1.95;;;;;;;5.44;100.00;98124.94;5027282;28;20037;-71
2023/01/13 09:19:27;;;;;;;1.00;0.95;;;;;;;5.40;100.00;98121.56;5042555;28;20032;-69
2023/01/13 09:21:55;;;;;;;0.50;0.50;;;;;;;5.42;100.00;98135.25;5027241;28;20030;-70
2023/01/13 09:24:22;;;;;;;0.50;0.50;;;;;;;5.40;100.00;98141.34;5027316;28;20029;-70
2023/01/13 09:26:47;;;;;;;0.57;0.57;;;;;;;5.37;100.00;98137.09;5027243;28;20113;-70
2023/01/13 09:29:13;;;;;;;1.50;0.75;;;;;;;5.40;100.00;98136.19;5027273;28;20025;-70
2023/01/13 09:31:39;;;;;;;0.50;0.50;;;;;;;5.36;100.00;98143.13;5027011;28;20061;-72
2023/01/13 09:36:50;;;;;;;0.50;0.50;;;;;;;5.43;100.00;98142.09;5027113;28;20334;-70
2023/01/13 09:39:16;;;;;;;0.50;0.50;;;;;;;5.46;100.00;98141.19;5026741;28;20026;-70
2023/01/13 09:45:00;;;;;;;0.45;0.45;;;;;;;5.46;100.00;98131.72;5026935;28;20037;-70
2023/01/13 09:47:56;;;;;;;0.50;0.50;;;;;;;5.48;100.00;98143.72;5026797;28;20083;-69
2023/01/13 09:50:28;;;;;;;0.50;0.50;;;;;;;5.56;100.00;98132.34;5026623;28;20371;-69
2023/01/13 09:52:54;;;;;;;;;;;;;;;5.58;100.00;98132.31;5042390;28;20030;-70
2023/01/13 09:55:31;;;;;;;0.50;0.50;;;;;;;5.49;100.00;98125.66;5026552;28;19980;-70
2023/01/13 09:57:57;;;;;;;0.50;0.50;;;;;;;5.42;100.00;98116.38;5026337;28;20033;-71
2023/01/13 10:00:32;;;;;;;0.50;0.50;;;;;;;5.46;100.00;98129.16;5026634;28;20022;-71
2023/01/13 10:03:21;;;;;;;0.55;0.55;;;;;;;5.49;100.00;98124.81;5026619;28;20022;-70
2023/01/13 10:05:55;;;;;;;0.50;0.50;;;;;;;5.37;100.00;98124.22;5026274;28;20033;-70
2023/01/13 10:08:36;;;;;;;0.50;0.50;;;;;;;5.38;100.00;98131.09;5026183;28;20025;-68
2023/01/13 10:13:13;;;;;;;4.22;2.97;;;;;;;5.33;100.00;98109.75;5025173;28;20113;-70
2023/01/13 10:14:02;;;;;;;1.83;1.77;;;;;;;5.24;100.00;98115.13;5025258;28;20061;-70
2023/01/13 10:16:47;;;;;;;0.60;0.60;;;;;;;5.30;100.00;98112.41;5025992;28;20041;-70
2023/01/13 10:19:21;;;;;;;0.50;0.50;;;;;;;5.28;100.00;98112.44;5024687;28;20081;-71
2023/01/13 10:22:08;;;;;;;0.52;0.52;;;;;;;5.27;100.00;98113.31;5026104;28;20022;-71
2023/01/13 10:24:55;;;;;;;0.57;0.57;;;;;;;5.26;100.00;98114.19;5040734;28;20080;-72
2023/01/13 10:27:33;;;;;;;0.50;0.50;;;;;;;5.25;100.00;98106.50;5025765;28;20108;-71
2023/01/13 10:30:30;;;;;;;0.50;0.50;;;;;;;5.23;100.00;98105.69;5041341;28;20093;-72
2023/01/13 10:33:01;;;;;;;0.57;0.57;;;;;;;5.28;100.00;98117.59;5025868;28;20022;-71
2023/01/13 10:36:10;;;;;;;0.60;0.60;;;;;;;5.32;100.00;98101.19;5024289;28;20014;-70
2023/01/13 10:38:48;;;;;;;0.50;0.50;;;;;;;5.37;100.00;98105.38;4984118;28;20041;-70
2023/01/13 10:41:19;;;;;;;0.50;0.50;;;;;;;5.44;100.00;98106.91;4984198;28;20050;-71
2023/01/13 10:43:50;;;;;;;45.90;3.80;;;;;;;5.51;100.00;98099.91;4984279;28;20615;-73
2023/01/13 10:46:17;;;;;;;0.50;0.50;;;;;;;5.58;100.00;98104.84;4984452;28;20030;-72
2023/01/13 10:48:57;;;;;;;0.50;0.50;;;;;;;5.63;100.00;98091.84;4984196;28;20091;-71
2023/01/13 10:51:28;;;;;;;0.50;0.50;;;;;;;5.60;100.00;98107.38;4984055;28;20114;-71
2023/01/13 10:54:21;;;;;;;0.50;0.50;;;;;;;5.59;100.00;98100.56;4982269;28;20034;-72
2023/01/13 10:56:49;;;;;;;0.50;0.50;;;;;;;5.65;100.00;98092.66;4967462;28;20098;-72
2023/01/13 10:59:28;;;;;;;0.50;0.50;;;;;;;5.61;100.00;98095.38;4984017;28;20031;-72
2023/01/13 11:02:02;;;;;;;0.60;0.60;;;;;;;5.61;100.00;98091.03;4967678;28;20109;-77
2023/01/13 11:04:35;;;;;;;0.50;0.50;;;;;;;5.60;100.00;98099.66;4983645;28;20034;-70
2023/01/13 11:07:03;;;;;;;9.55;1.65;;;;;;;5.59;100.00;98097.97;4983686;28;20265;-70
2023/01/13 11:09:30;;;;;;;0.50;0.50;;;;;;;5.62;100.00;98085.03;5007940;28;20041;-71
2023/01/13 11:11:57;;;;;;;0.47;0.47;;;;;;;5.66;100.00;98083.19;5023758;28;20017;-70
2023/01/13 11:14:40;;;;;;;0.50;0.50;;;;;;;5.68;100.00;98074.56;5040290;28;20030;-68
2023/01/13 11:17:14;;;;;;;2.03;1.95;;;;;;;5.54;100.00;98071.50;5025583;28;20378;-70
2023/01/13 11:19:46;;;;;;;0.47;0.47;;;;;;;5.54;100.00;98076.66;5025281;28;20053;-70
2023/01/13 11:22:22;;;;;;;;;;;;;;;5.58;100.00;98084.25;5025730;28;20017;-70
2023/01/13 11:24:56;;;;;;;0.60;0.60;;;;;;;5.60;100.00;98081.66;5025263;28;19913;-70
2023/01/13 11:28:15;;;;;;;1.38;1.33;;;;;;;5.62;100.00;98082.47;5024961;28;20026;-70
2023/01/13 11:31:18;;;;;;;0.50;0.50;;;;;;;5.64;100.00;98075.53;5007741;28;20053;-69
2023/01/13 11:33:46;;;;;;;0.50;0.50;;;;;;;5.63;100.00;98076.41;5015964;28;20097;-69
2023/01/13 11:36:31;;;;;;;0.50;0.50;;;;;;;5.61;100.00;98064.47;5025195;28;20026;-71
2023/01/13 11:39:13;;;;;;;0.50;0.50;;;;;;;5.69;100.00;98080.53;5025272;28;20026;-72
2023/01/13 11:41:44;;;;;;;0.50;0.50;;;;;;;5.69;100.00;98067.66;5023407;28;20053;-72
2023/01/13 11:44:34;;;;;;;0.70;0.70;;;;;;;5.68;100.00;98060.84;5024908;28;20030;-71
2023/01/13 11:47:00;;;;;;;0.80;0.80;;;;;;;5.61;100.00;98055.00;5024825;28;20081;-72
2023/01/13 11:49:29;;;;;;;0.50;0.50;;;;;;;5.66;100.00;98065.19;5023805;28;20049;-72
2023/01/13 11:52:07;;;;;;;0.50;0.50;;;;;;;5.63;100.00;98076.41;5039932;28;20026;-71
2023/01/13 11:54:41;;;;;;;0.50;0.50;;;;;;;5.65;100.00;98059.22;5040028;28;20121;-72
2023/01/13 11:57:09;;;;;;;0.50;0.50;;;;;;;5.62;100.00;98064.44;5024652;28;20029;-71
2023/01/13 11:59:53;;;;;;;0.50;0.50;;;;;;;5.67;100.00;98056.59;5024889;28;20026;-69
2023/01/13 12:02:43;;;;;;;0.40;0.40;;;;;;;5.65;100.00;98066.06;5024723;28;20048;-65
2023/01/13 12:05:28;;;;;;;0.77;0.77;;;;;;;5.56;100.00;98046.56;5041379;28;20482;-69
2023/01/13 12:08:11;;;;;;;0.88;0.88;;;;;;;5.62;100.00;98046.41;5028473;28;20053;-70
2023/01/13 12:10:52;;;;;;;0.50;0.50;;;;;;;5.61;100.00;98047.28;5028487;28;20030;-68
2023/01/13 12:13:26;;;;;;;0.50;0.50;;;;;;;5.56;100.00;98051.69;5028510;28;20036;-70
2023/01/13 12:16:19;;;;;;;0.50;0.50;;;;;;;5.62;100.00;98043.00;5028367;28;20081;-69
2023/01/13 12:19:18;;;;;;;0.50;0.50;;;;;;;5.45;100.00;98042.53;5043587;28;20080;-69
2023/01/13 12:22:14;;;;;;;0.50;0.50;;;;;;;5.54;100.00;98040.63;5019737;28;20057;-69
2023/01/13 12:24:58;;;;;;;0.50;0.50;;;;;;;5.49;100.00;98042.47;5043356;28;20018;-70
2023/01/13 12:28:09;;;;;;;0.50;0.50;;;;;;;5.46;100.00;98033.09;5043218;28;20025;-70
2023/01/13 12:30:51;;;;;;;0.50;0.50;;;;;;;5.52;100.00;98026.94;4987249;28;20043;-71
2023/01/13 12:33:16;;;;;;;0.50;0.50;;;;;;;5.46;100.00;98039.06;4986823;28;20042;-70